Time;durP1;ratioP1;P1;durP2;ratioP2;P2;SDS_P1;SDS_P2;PMS_P1;PMS_P2;Temp;Humidity;BMP_temperature;BMP_pressure;BME280_temperature;BME280_humidity;BME280_pressure;Samples;Min_cycle;Max_cycle;Signal;HPM_P1;HPM_P2
2022/10/24 05:22:38;;;;;;;;;;;;;;;20.89;58.67;99036.96;1980413;72;20166;-72
2022/10/24 05:25:26;;;;;;;;;;;;;;;21.29;58.40;99037.16;1910583;73;20153;-74
2022/10/24 05:28:14;;;;;;;;;;;;;;;22.16;56.95;99039.41;1936229;74;20129;-74
2022/10/24 05:31:01;;;;;;;;;;;;;;;22.86;55.59;99027.63;1921962;74;20193;-72
2022/10/24 05:33:48;;;;;;;;;;;;;;;23.44;54.04;99020.38;1909161;75;20155;-71
2022/10/24 05:36:36;;;;;;;;;;;;;;;23.90;52.88;99002.94;1908870;75;20189;-72
2022/10/24 05:39:24;;;;;;;;;;;;;;;24.28;51.78;99006.72;1908949;75;20151;-72
2022/10/24 05:42:11;;;;;;;;;;;;;;;24.61;50.79;99001.03;1911916;73;20178;-73
2022/10/24 05:44:58;;;;;;;;;;;;;;;24.85;49.93;99001.03;1908864;75;20154;-73
2022/10/24 05:47:46;;;;;;;;;;;;;;;25.07;49.27;99010.55;1908676;75;20116;-71
2022/10/24 05:50:33;;;;;;;;;;;;;;;25.24;48.70;99022.23;1910063;74;20185;-71
2022/10/24 05:53:21;;;;;;;;;;;;;;;25.36;48.20;99029.75;1917220;74;20195;-71
2022/10/24 05:56:09;;;;;;;;;;;;;;;25.45;47.77;99018.58;1908808;75;20201;-71
2022/10/24 05:58:57;;;;;;;;;;;;;;;25.54;47.53;99010.11;1894001;74;20155;-71
2022/10/24 06:01:44;;;;;;;;;;;;;;;25.62;47.27;99042.63;1895127;75;20212;-71
2022/10/24 06:04:31;;;;;;;;;;;;;;;25.70;47.14;99051.73;1908923;75;20151;-72
2022/10/24 06:07:19;;;;;;;;;;;;;;;25.77;47.08;99077.09;1893149;74;20129;-72
2022/10/24 06:10:07;;;;;;;;;;;;;;;25.85;46.86;99054.59;1883842;75;20138;-72
2022/10/24 06:12:55;;;;;;;;;;;;;;;25.91;46.73;99104.43;1870248;76;20115;-72
2022/10/24 06:15:43;;;;;;;;;;;;;;;25.96;46.63;98970.98;1873375;77;20115;-72
2022/10/24 06:18:30;;;;;;;;;;;;;;;25.97;46.60;99007.59;1840164;78;20144;-72
2022/10/24 06:21:20;;;;;;;;;;;;;;;26.01;46.52;99032.94;1855421;76;20207;-73
2022/10/24 06:24:08;;;;;;;;;;;;;;;26.01;46.47;99101.75;1865957;77;20248;-74
2022/10/24 06:26:56;;;;;;;;;;;;;;;26.02;46.33;99117.16;1852105;76;20191;-73
2022/10/24 06:29:43;;;;;;;;;;;;;;;25.98;46.35;99106.94;1853578;76;20184;-74
2022/10/24 06:32:31;;;;;;;;;;;;;;;26.01;46.28;99132.03;1856217;76;20224;-74
2022/10/24 06:35:19;;;;;;;;;;;;;;;25.98;46.27;99143.56;1819349;77;20224;-74
2022/10/24 06:38:06;;;;;;;;;;;;;;;26.00;46.10;99157.88;1871912;77;20115;-72
2022/10/24 06:40:53;;;;;;;;;;;;;;;26.03;46.06;99164.23;1876854;76;20211;-74
2022/10/24 06:43:41;;;;;;;;;;;;;;;26.04;45.95;99123.78;1884424;75;20133;-75
2022/10/24 06:46:28;;;;;;;;;;;;;;;26.04;45.85;99127.91;1919155;74;20179;-74
2022/10/24 06:49:16;;;;;;;;;;;;;;;26.05;45.80;99135.06;1913078;74;20225;-72
2022/10/24 06:52:03;;;;;;;;;;;;;;;26.01;45.72;99127.90;1915061;75;20148;-73
2022/10/24 06:54:51;;;;;;;;;;;;;;;26.00;45.97;99122.09;1898519;75;20158;-76
2022/10/24 10:37:13;;;;;;;;;;;;;;;21.16;59.52;99178.06;1943988;72;20284;-72
2022/10/24 10:40:11;;;;;;;;;;;;;;;21.51;59.00;99180.35;1905061;73;20225;-73
2022/10/24 10:43:00;;;;;;;;;;;;;;;22.34;57.69;99185.61;1907793;73;20246;-73
2022/10/24 10:45:49;;;;;;;;;;;;;;;23.07;56.18;99181.16;1904215;73;20169;-73
2022/10/24 10:48:47;;;;;;;;;;;;;;;23.66;55.01;99194.86;1905000;73;20364;-73
2022/10/24 10:51:52;;;;;;;;;;;;;;;24.19;54.62;99165.53;1901662;73;20225;-71
2022/10/24 10:54:47;;;;;;;;;;;;;;;24.65;54.70;99158.18;1904139;73;20221;-73
2022/10/24 10:57:37;;;;;;;;;;;;;;;25.04;54.68;99164.98;1903483;73;20223;-76
2022/10/24 11:00:42;;;;;;;;;;;;;;;25.34;54.18;99148.80;1902855;73;20233;-74
2022/10/24 11:03:47;;;;;;;;;;;;;;;25.57;53.60;99164.98;1908041;73;20191;-72
2022/10/24 11:06:35;;;;;;;;;;;;;;;25.81;53.04;99159.39;1902336;73;20265;-73
2022/10/24 11:09:41;;;;;;;;;;;;;;;26.00;52.55;99157.88;1902038;73;20209;-75
2022/10/24 11:12:30;;;;;;;;;;;;;;;26.14;52.07;99161.02;1905471;73;20182;-73
2022/10/24 11:15:19;;;;;;;;;;;;;;;26.21;51.57;99156.69;1901802;73;20312;-73
2022/10/24 17:29:01;;;;;;;;;;;;;;;21.12;60.12;99216.47;1936081;72;20216;-72
2022/10/24 17:31:48;;;;;;;;;;;;;;;21.46;59.72;99210.28;1903649;74;20225;-74
2022/10/24 17:34:35;;;;;;;;;;;;;;;22.25;58.39;99214.41;1901147;74;20242;-72
